sensor_id;sensor_type;location;lat;lon;timestamp;P1;durP1;ratioP1;P2;durP2;ratioP2
74328;SDS011;62745;51.060;13.786;2023-12-28T00:00:23;5.83;;;2.57;;
74328;SDS011;62745;51.060;13.786;2023-12-28T00:02:49;6.10;;;2.20;;
74328;SDS011;62745;51.060;13.786;2023-12-28T00:05:14;9.07;;;2.23;;
74328;SDS011;62745;51.060;13.786;2023-12-28T00:07:39;9.07;;;2.30;;
74328;SDS011;62745;51.060;13.786;2023-12-28T00:10:04;8.70;;;2.37;;
74328;SDS011;62745;51.060;13.786;2023-12-28T00:12:30;5.95;;;2.30;;
74328;SDS011;62745;51.060;13.786;2023-12-28T00:14:55;6.73;;;2.23;;
74328;SDS011;62745;51.060;13.786;2023-12-28T00:17:21;5.43;;;1.85;;
74328;SDS011;62745;51.060;13.786;2023-12-28T00:19:46;8.20;;;2.07;;
74328;SDS011;62745;51.060;13.786;2023-12-28T00:22:11;5.40;;;1.73;;
74328;SDS011;62745;51.060;13.786;2023-12-28T00:24:36;5.82;;;2.67;;
74328;SDS011;62745;51.060;13.786;2023-12-28T00:27:02;4.85;;;2.03;;
74328;SDS011;62745;51.060;13.786;2023-12-28T00:29:27;5.43;;;2.10;;
74328;SDS011;62745;51.060;13.786;2023-12-28T00:31:54;5.10;;;1.98;;
74328;SDS011;62745;51.060;13.786;2023-12-28T00:34:19;5.40;;;2.13;;
74328;SDS011;62745;51.060;13.786;2023-12-28T00:36:44;5.07;;;1.90;;
74328;SDS011;62745;51.060;13.786;2023-12-28T00:39:09;5.13;;;1.87;;
74328;SDS011;62745;51.060;13.786;2023-12-28T00:41:35;6.00;;;2.03;;
74328;SDS011;62745;51.060;13.786;2023-12-28T00:44:00;7.10;;;2.15;;
74328;SDS011;62745;51.060;13.786;2023-12-28T00:46:27;6.20;;;2.10;;
74328;SDS011;62745;51.060;13.786;2023-12-28T00:48:52;5.47;;;2.00;;
74328;SDS011;62745;51.060;13.786;2023-12-28T00:51:17;5.78;;;1.88;;
74328;SDS011;62745;51.060;13.786;2023-12-28T00:53:43;4.40;;;1.57;;
74328;SDS011;62745;51.060;13.786;2023-12-28T00:56:09;4.53;;;1.73;;
74328;SDS011;62745;51.060;13.786;2023-12-28T00:58:35;5.55;;;1.67;;
74328;SDS011;62745;51.060;13.786;2023-12-28T01:01:03;5.47;;;1.83;;
74328;SDS011;62745;51.060;13.786;2023-12-28T01:03:28;5.47;;;2.20;;
74328;SDS011;62745;51.060;13.786;2023-12-28T01:05:54;4.28;;;1.70;;
74328;SDS011;62745;51.060;13.786;2023-12-28T01:08:19;5.60;;;1.90;;
74328;SDS011;62745;51.060;13.786;2023-12-28T01:10:44;4.55;;;2.00;;
74328;SDS011;62745;51.060;13.786;2023-12-28T01:13:10;6.45;;;1.90;;
74328;SDS011;62745;51.060;13.786;2023-12-28T01:15:35;6.70;;;2.03;;
74328;SDS011;62745;51.060;13.786;2023-12-28T01:18:00;5.10;;;1.93;;
74328;SDS011;62745;51.060;13.786;2023-12-28T01:20:26;6.87;;;2.30;;
74328;SDS011;62745;51.060;13.786;2023-12-28T01:22:51;7.03;;;2.00;;
74328;SDS011;62745;51.060;13.786;2023-12-28T01:25:16;7.13;;;2.05;;
74328;SDS011;62745;51.060;13.786;2023-12-28T01:27:42;5.07;;;1.65;;
74328;SDS011;62745;51.060;13.786;2023-12-28T01:30:07;6.23;;;2.20;;
74328;SDS011;62745;51.060;13.786;2023-12-28T01:32:33;6.25;;;2.33;;
74328;SDS011;62745;51.060;13.786;2023-12-28T01:34:58;7.68;;;2.13;;
74328;SDS011;62745;51.060;13.786;2023-12-28T01:37:23;5.50;;;1.70;;
74328;SDS011;62745;51.060;13.786;2023-12-28T01:39:49;5.75;;;2.08;;
74328;SDS011;62745;51.060;13.786;2023-12-28T01:42:14;7.17;;;2.20;;
74328;SDS011;62745;51.060;13.786;2023-12-28T01:44:39;8.33;;;2.17;;
74328;SDS011;62745;51.060;13.786;2023-12-28T01:47:05;5.47;;;2.20;;
74328;SDS011;62745;51.060;13.786;2023-12-28T01:49:31;5.88;;;2.00;;
74328;SDS011;62745;51.060;13.786;2023-12-28T01:51:59;6.30;;;2.10;;
74328;SDS011;62745;51.060;13.786;2023-12-28T01:54:26;5.80;;;2.00;;
74328;SDS011;62745;51.060;13.786;2023-12-28T01:56:51;6.75;;;2.63;;
74328;SDS011;62745;51.060;13.786;2023-12-28T01:59:17;6.22;;;1.95;;
74328;SDS011;62745;51.060;13.786;2023-12-28T02:01:43;4.55;;;1.65;;
74328;SDS011;62745;51.060;13.786;2023-12-28T02:04:09;6.43;;;2.20;;
74328;SDS011;62745;51.060;13.786;2023-12-28T02:06:35;5.38;;;2.13;;
74328;SDS011;62745;51.060;13.786;2023-12-28T02:09:01;5.60;;;1.83;;
74328;SDS011;62745;51.060;13.786;2023-12-28T02:11:26;6.55;;;1.90;;
74328;SDS011;62745;51.060;13.786;2023-12-28T02:13:51;4.55;;;2.08;;
74328;SDS011;62745;51.060;13.786;2023-12-28T02:16:21;4.17;;;1.70;;
74328;SDS011;62745;51.060;13.786;2023-12-28T02:18:52;3.60;;;1.40;;
74328;SDS011;62745;51.060;13.786;2023-12-28T02:21:21;5.22;;;2.42;;
74328;SDS011;62745;51.060;13.786;2023-12-28T02:23:49;4.77;;;2.00;;
74328;SDS011;62745;51.060;13.786;2023-12-28T02:26:15;3.80;;;1.70;;
74328;SDS011;62745;51.060;13.786;2023-12-28T02:28:41;6.18;;;2.00;;
74328;SDS011;62745;51.060;13.786;2023-12-28T02:31:06;4.35;;;1.80;;
74328;SDS011;62745;51.060;13.786;2023-12-28T02:33:36;3.78;;;1.58;;
74328;SDS011;62745;51.060;13.786;2023-12-28T02:36:09;4.28;;;1.77;;
74328;SDS011;62745;51.060;13.786;2023-12-28T02:38:36;4.65;;;1.73;;
74328;SDS011;62745;51.060;13.786;2023-12-28T02:41:03;6.10;;;2.10;;
74328;SDS011;62745;51.060;13.786;2023-12-28T02:43:29;5.85;;;1.75;;
74328;SDS011;62745;51.060;13.786;2023-12-28T02:45:54;5.10;;;1.60;;
74328;SDS011;62745;51.060;13.786;2023-12-28T02:48:20;4.93;;;1.80;;
74328;SDS011;62745;51.060;13.786;2023-12-28T02:50:45;4.50;;;1.60;;
74328;SDS011;62745;51.060;13.786;2023-12-28T02:53:11;5.38;;;1.88;;
74328;SDS011;62745;51.060;13.786;2023-12-28T02:55:37;4.88;;;2.15;;
74328;SDS011;62745;51.060;13.786;2023-12-28T02:58:02;6.57;;;1.80;;
74328;SDS011;62745;51.060;13.786;2023-12-28T03:00:28;4.65;;;1.67;;
74328;SDS011;62745;51.060;13.786;2023-12-28T03:02:53;6.33;;;1.70;;
74328;SDS011;62745;51.060;13.786;2023-12-28T03:05:18;5.22;;;1.67;;
74328;SDS011;62745;51.060;13.786;2023-12-28T03:07:44;4.68;;;1.65;;
74328;SDS011;62745;51.060;13.786;2023-12-28T03:10:10;6.45;;;2.22;;
74328;SDS011;62745;51.060;13.786;2023-12-28T03:12:36;3.28;;;1.40;;
74328;SDS011;62745;51.060;13.786;2023-12-28T03:15:01;2.83;;;1.20;;
74328;SDS011;62745;51.060;13.786;2023-12-28T03:17:27;3.33;;;1.23;;
74328;SDS011;62745;51.060;13.786;2023-12-28T03:19:54;2.67;;;1.17;;
74328;SDS011;62745;51.060;13.786;2023-12-28T03:22:19;4.22;;;1.23;;
74328;SDS011;62745;51.060;13.786;2023-12-28T03:24:44;4.22;;;1.77;;
74328;SDS011;62745;51.060;13.786;2023-12-28T03:27:11;3.55;;;1.52;;
74328;SDS011;62745;51.060;13.786;2023-12-28T03:29:37;5.50;;;1.60;;
74328;SDS011;62745;51.060;13.786;2023-12-28T03:32:02;3.50;;;1.50;;
74328;SDS011;62745;51.060;13.786;2023-12-28T03:34:27;4.50;;;1.50;;
74328;SDS011;62745;51.060;13.786;2023-12-28T03:36:54;2.38;;;1.02;;
74328;SDS011;62745;51.060;13.786;2023-12-28T03:39:20;4.22;;;1.10;;
74328;SDS011;62745;51.060;13.786;2023-12-28T03:41:47;3.03;;;1.10;;
74328;SDS011;62745;51.060;13.786;2023-12-28T03:44:12;2.55;;;1.00;;
74328;SDS011;62745;51.060;13.786;2023-12-28T03:46:38;2.73;;;1.03;;
74328;SDS011;62745;51.060;13.786;2023-12-28T03:49:03;2.85;;;1.02;;
74328;SDS011;62745;51.060;13.786;2023-12-28T03:51:28;2.77;;;0.97;;
74328;SDS011;62745;51.060;13.786;2023-12-28T03:53:53;1.87;;;0.70;;
74328;SDS011;62745;51.060;13.786;2023-12-28T03:56:21;2.63;;;1.17;;
74328;SDS011;62745;51.060;13.786;2023-12-28T03:58:48;2.50;;;1.10;;
74328;SDS011;62745;51.060;13.786;2023-12-28T04:01:13;2.85;;;1.13;;
74328;SDS011;62745;51.060;13.786;2023-12-28T04:03:38;2.07;;;0.80;;
74328;SDS011;62745;51.060;13.786;2023-12-28T04:06:04;2.65;;;1.10;;
74328;SDS011;62745;51.060;13.786;2023-12-28T04:08:30;3.47;;;1.40;;
74328;SDS011;62745;51.060;13.786;2023-12-28T04:10:55;3.38;;;1.27;;
74328;SDS011;62745;51.060;13.786;2023-12-28T04:13:20;3.05;;;1.40;;
74328;SDS011;62745;51.060;13.786;2023-12-28T04:15:46;3.03;;;1.40;;
74328;SDS011;62745;51.060;13.786;2023-12-28T04:18:11;5.50;;;1.60;;
74328;SDS011;62745;51.060;13.786;2023-12-28T04:20:36;6.33;;;1.97;;
74328;SDS011;62745;51.060;13.786;2023-12-28T04:23:02;4.72;;;1.80;;
74328;SDS011;62745;51.060;13.786;2023-12-28T04:25:27;3.85;;;1.58;;
74328;SDS011;62745;51.060;13.786;2023-12-28T04:27:52;5.43;;;1.63;;
74328;SDS011;62745;51.060;13.786;2023-12-28T04:30:17;5.13;;;1.70;;
74328;SDS011;62745;51.060;13.786;2023-12-28T04:32:43;4.83;;;1.60;;
74328;SDS011;62745;51.060;13.786;2023-12-28T04:35:08;4.63;;;1.90;;
74328;SDS011;62745;51.060;13.786;2023-12-28T04:37:33;5.00;;;1.70;;
74328;SDS011;62745;51.060;13.786;2023-12-28T04:40:00;4.50;;;1.80;;
74328;SDS011;62745;51.060;13.786;2023-12-28T04:42:25;4.30;;;1.50;;
74328;SDS011;62745;51.060;13.786;2023-12-28T04:44:50;6.13;;;1.73;;
74328;SDS011;62745;51.060;13.786;2023-12-28T04:47:15;4.53;;;1.50;;
74328;SDS011;62745;51.060;13.786;2023-12-28T04:49:41;4.65;;;1.40;;
74328;SDS011;62745;51.060;13.786;2023-12-28T04:52:06;4.27;;;1.70;;
74328;SDS011;62745;51.060;13.786;2023-12-28T04:54:31;4.27;;;1.30;;
74328;SDS011;62745;51.060;13.786;2023-12-28T04:56:58;3.10;;;1.23;;
74328;SDS011;62745;51.060;13.786;2023-12-28T04:59:23;5.00;;;1.80;;
74328;SDS011;62745;51.060;13.786;2023-12-28T05:01:48;3.80;;;1.60;;
74328;SDS011;62745;51.060;13.786;2023-12-28T05:04:14;3.50;;;1.30;;
74328;SDS011;62745;51.060;13.786;2023-12-28T05:06:39;4.07;;;1.90;;
74328;SDS011;62745;51.060;13.786;2023-12-28T05:09:04;6.13;;;1.80;;
74328;SDS011;62745;51.060;13.786;2023-12-28T05:11:30;4.95;;;1.73;;
74328;SDS011;62745;51.060;13.786;2023-12-28T05:13:55;3.63;;;1.67;;
74328;SDS011;62745;51.060;13.786;2023-12-28T05:16:21;4.30;;;1.25;;
74328;SDS011;62745;51.060;13.786;2023-12-28T05:18:47;3.35;;;1.05;;
74328;SDS011;62745;51.060;13.786;2023-12-28T05:21:12;3.45;;;1.50;;
74328;SDS011;62745;51.060;13.786;2023-12-28T05:23:37;2.53;;;1.10;;
74328;SDS011;62745;51.060;13.786;2023-12-28T05:26:03;3.78;;;1.50;;
74328;SDS011;62745;51.060;13.786;2023-12-28T05:28:28;4.35;;;1.55;;
74328;SDS011;62745;51.060;13.786;2023-12-28T05:30:53;8.03;;;2.33;;
74328;SDS011;62745;51.060;13.786;2023-12-28T05:33:19;4.37;;;1.80;;
74328;SDS011;62745;51.060;13.786;2023-12-28T05:35:44;4.80;;;1.63;;
74328;SDS011;62745;51.060;13.786;2023-12-28T05:38:09;3.57;;;1.30;;
74328;SDS011;62745;51.060;13.786;2023-12-28T05:46:51;4.82;;;1.60;;
74328;SDS011;62745;51.060;13.786;2023-12-28T05:49:17;4.13;;;1.20;;
74328;SDS011;62745;51.060;13.786;2023-12-28T05:51:42;4.63;;;1.90;;
74328;SDS011;62745;51.060;13.786;2023-12-28T05:54:08;3.05;;;1.33;;
74328;SDS011;62745;51.060;13.786;2023-12-28T05:56:33;4.07;;;1.30;;
74328;SDS011;62745;51.060;13.786;2023-12-28T05:58:59;4.40;;;1.50;;
74328;SDS011;62745;51.060;13.786;2023-12-28T06:01:24;5.00;;;1.60;;
74328;SDS011;62745;51.060;13.786;2023-12-28T06:03:49;4.05;;;1.55;;
74328;SDS011;62745;51.060;13.786;2023-12-28T06:06:17;3.45;;;1.40;;
74328;SDS011;62745;51.060;13.786;2023-12-28T06:08:42;3.60;;;1.65;;
74328;SDS011;62745;51.060;13.786;2023-12-28T06:11:08;3.37;;;1.40;;
74328;SDS011;62745;51.060;13.786;2023-12-28T06:13:33;4.38;;;1.77;;
74328;SDS011;62745;51.060;13.786;2023-12-28T06:15:59;3.30;;;1.60;;
74328;SDS011;62745;51.060;13.786;2023-12-28T06:18:24;4.90;;;1.13;;
74328;SDS011;62745;51.060;13.786;2023-12-28T06:20:49;3.67;;;1.67;;
74328;SDS011;62745;51.060;13.786;2023-12-28T06:23:14;3.60;;;1.50;;
74328;SDS011;62745;51.060;13.786;2023-12-28T06:25:40;4.10;;;1.50;;
74328;SDS011;62745;51.060;13.786;2023-12-28T06:28:05;3.33;;;1.48;;
74328;SDS011;62745;51.060;13.786;2023-12-28T06:30:30;6.07;;;1.43;;
74328;SDS011;62745;51.060;13.786;2023-12-28T06:32:56;4.20;;;1.33;;
74328;SDS011;62745;51.060;13.786;2023-12-28T06:35:21;5.47;;;2.30;;
74328;SDS011;62745;51.060;13.786;2023-12-28T06:37:46;3.97;;;1.50;;
74328;SDS011;62745;51.060;13.786;2023-12-28T06:40:12;4.37;;;1.30;;
74328;SDS011;62745;51.060;13.786;2023-12-28T06:42:37;4.40;;;1.60;;
74328;SDS011;62745;51.060;13.786;2023-12-28T06:45:02;3.42;;;1.10;;
74328;SDS011;62745;51.060;13.786;2023-12-28T06:47:28;2.78;;;1.17;;
74328;SDS011;62745;51.060;13.786;2023-12-28T06:49:53;3.27;;;1.57;;
74328;SDS011;62745;51.060;13.786;2023-12-28T06:52:18;4.28;;;1.20;;
74328;SDS011;62745;51.060;13.786;2023-12-28T06:54:44;5.60;;;1.40;;
74328;SDS011;62745;51.060;13.786;2023-12-28T06:57:09;4.90;;;1.40;;
74328;SDS011;62745;51.060;13.786;2023-12-28T06:59:34;3.67;;;1.30;;
74328;SDS011;62745;51.060;13.786;2023-12-28T07:02:00;4.97;;;1.52;;
74328;SDS011;62745;51.060;13.786;2023-12-28T07:04:25;3.97;;;1.30;;
74328;SDS011;62745;51.060;13.786;2023-12-28T07:06:54;4.78;;;1.80;;
74328;SDS011;62745;51.060;13.786;2023-12-28T07:09:19;3.20;;;1.50;;
74328;SDS011;62745;51.060;13.786;2023-12-28T07:11:45;4.05;;;1.23;;
74328;SDS011;62745;51.060;13.786;2023-12-28T07:14:10;3.63;;;1.33;;
74328;SDS011;62745;51.060;13.786;2023-12-28T07:16:35;5.77;;;1.63;;
74328;SDS011;62745;51.060;13.786;2023-12-28T07:19:00;3.60;;;1.53;;
74328;SDS011;62745;51.060;13.786;2023-12-28T07:21:26;3.43;;;1.27;;
74328;SDS011;62745;51.060;13.786;2023-12-28T07:23:51;4.43;;;1.60;;
74328;SDS011;62745;51.060;13.786;2023-12-28T07:26:16;3.00;;;1.40;;
74328;SDS011;62745;51.060;13.786;2023-12-28T07:28:41;3.33;;;1.53;;
74328;SDS011;62745;51.060;13.786;2023-12-28T07:31:09;3.78;;;1.30;;
74328;SDS011;62745;51.060;13.786;2023-12-28T07:33:35;5.15;;;1.25;;
74328;SDS011;62745;51.060;13.786;2023-12-28T07:36:00;3.43;;;1.20;;
74328;SDS011;62745;51.060;13.786;2023-12-28T07:38:27;3.90;;;1.50;;
74328;SDS011;62745;51.060;13.786;2023-12-28T07:40:52;3.30;;;1.20;;
74328;SDS011;62745;51.060;13.786;2023-12-28T07:43:18;4.33;;;1.40;;
74328;SDS011;62745;51.060;13.786;2023-12-28T07:45:43;4.03;;;1.40;;
74328;SDS011;62745;51.060;13.786;2023-12-28T07:48:08;2.80;;;1.40;;
74328;SDS011;62745;51.060;13.786;2023-12-28T07:50:34;2.77;;;1.20;;
74328;SDS011;62745;51.060;13.786;2023-12-28T07:52:59;3.53;;;1.30;;
74328;SDS011;62745;51.060;13.786;2023-12-28T07:55:25;4.47;;;1.42;;
74328;SDS011;62745;51.060;13.786;2023-12-28T07:57:51;3.38;;;1.10;;
74328;SDS011;62745;51.060;13.786;2023-12-28T08:00:16;2.73;;;1.13;;
74328;SDS011;62745;51.060;13.786;2023-12-28T08:02:42;2.90;;;1.23;;
74328;SDS011;62745;51.060;13.786;2023-12-28T08:05:08;3.33;;;1.35;;
74328;SDS011;62745;51.060;13.786;2023-12-28T08:07:33;3.15;;;1.20;;
74328;SDS011;62745;51.060;13.786;2023-12-28T08:09:59;4.53;;;1.77;;
74328;SDS011;62745;51.060;13.786;2023-12-28T08:12:24;3.97;;;1.05;;
74328;SDS011;62745;51.060;13.786;2023-12-28T08:14:52;3.20;;;1.33;;
74328;SDS011;62745;51.060;13.786;2023-12-28T08:17:17;2.80;;;1.10;;
74328;SDS011;62745;51.060;13.786;2023-12-28T08:19:42;3.60;;;1.50;;
74328;SDS011;62745;51.060;13.786;2023-12-28T08:22:08;5.33;;;1.50;;
74328;SDS011;62745;51.060;13.786;2023-12-28T08:24:33;2.93;;;0.97;;
74328;SDS011;62745;51.060;13.786;2023-12-28T08:26:59;2.85;;;1.10;;
74328;SDS011;62745;51.060;13.786;2023-12-28T08:29:25;5.85;;;1.10;;
74328;SDS011;62745;51.060;13.786;2023-12-28T08:31:51;4.03;;;1.38;;
74328;SDS011;62745;51.060;13.786;2023-12-28T08:34:16;3.60;;;1.40;;
74328;SDS011;62745;51.060;13.786;2023-12-28T08:36:41;5.37;;;1.50;;
74328;SDS011;62745;51.060;13.786;2023-12-28T08:39:06;4.03;;;1.20;;
74328;SDS011;62745;51.060;13.786;2023-12-28T08:41:32;3.37;;;1.43;;
74328;SDS011;62745;51.060;13.786;2023-12-28T08:43:57;3.63;;;1.27;;
74328;SDS011;62745;51.060;13.786;2023-12-28T08:46:22;3.00;;;1.30;;
74328;SDS011;62745;51.060;13.786;2023-12-28T08:48:49;2.45;;;1.00;;
74328;SDS011;62745;51.060;13.786;2023-12-28T08:51:15;4.18;;;1.50;;
74328;SDS011;62745;51.060;13.786;2023-12-28T08:53:40;3.53;;;1.38;;
74328;SDS011;62745;51.060;13.786;2023-12-28T08:56:13;3.65;;;1.10;;
74328;SDS011;62745;51.060;13.786;2023-12-28T08:58:40;3.60;;;1.30;;
74328;SDS011;62745;51.060;13.786;2023-12-28T09:01:06;3.05;;;1.15;;
74328;SDS011;62745;51.060;13.786;2023-12-28T09:03:31;2.47;;;1.17;;
74328;SDS011;62745;51.060;13.786;2023-12-28T09:05:56;2.70;;;1.30;;
74328;SDS011;62745;51.060;13.786;2023-12-28T09:08:21;3.20;;;1.30;;
74328;SDS011;62745;51.060;13.786;2023-12-28T09:10:46;3.17;;;1.37;;
74328;SDS011;62745;51.060;13.786;2023-12-28T09:13:15;4.17;;;1.10;;
74328;SDS011;62745;51.060;13.786;2023-12-28T09:15:41;2.83;;;1.27;;
74328;SDS011;62745;51.060;13.786;2023-12-28T09:18:07;3.95;;;1.50;;
74328;SDS011;62745;51.060;13.786;2023-12-28T09:20:32;3.43;;;1.60;;
74328;SDS011;62745;51.060;13.786;2023-12-28T09:23:00;3.47;;;1.52;;
74328;SDS011;62745;51.060;13.786;2023-12-28T09:25:25;3.65;;;1.35;;
74328;SDS011;62745;51.060;13.786;2023-12-28T09:27:50;3.20;;;1.47;;
74328;SDS011;62745;51.060;13.786;2023-12-28T09:30:16;2.60;;;1.30;;
74328;SDS011;62745;51.060;13.786;2023-12-28T09:32:41;4.80;;;1.48;;
74328;SDS011;62745;51.060;13.786;2023-12-28T09:35:06;3.90;;;1.67;;
74328;SDS011;62745;51.060;13.786;2023-12-28T09:37:32;4.22;;;1.40;;
74328;SDS011;62745;51.060;13.786;2023-12-28T09:39:57;3.47;;;1.23;;
74328;SDS011;62745;51.060;13.786;2023-12-28T09:42:25;3.30;;;1.50;;
74328;SDS011;62745;51.060;13.786;2023-12-28T09:44:54;3.47;;;1.20;;
74328;SDS011;62745;51.060;13.786;2023-12-28T09:47:19;2.67;;;1.33;;
74328;SDS011;62745;51.060;13.786;2023-12-28T09:49:45;2.70;;;1.10;;
74328;SDS011;62745;51.060;13.786;2023-12-28T09:52:11;3.90;;;1.67;;
74328;SDS011;62745;51.060;13.786;2023-12-28T09:54:36;3.42;;;1.33;;
74328;SDS011;62745;51.060;13.786;2023-12-28T09:57:02;3.50;;;1.23;;
74328;SDS011;62745;51.060;13.786;2023-12-28T09:59:28;3.75;;;1.23;;
74328;SDS011;62745;51.060;13.786;2023-12-28T10:01:54;2.95;;;1.30;;
74328;SDS011;62745;51.060;13.786;2023-12-28T10:04:20;3.22;;;1.30;;
74328;SDS011;62745;51.060;13.786;2023-12-28T10:06:46;3.03;;;1.30;;
74328;SDS011;62745;51.060;13.786;2023-12-28T10:09:11;2.80;;;1.10;;
74328;SDS011;62745;51.060;13.786;2023-12-28T10:11:36;3.70;;;1.37;;
74328;SDS011;62745;51.060;13.786;2023-12-28T10:14:03;2.63;;;1.10;;
74328;SDS011;62745;51.060;13.786;2023-12-28T10:16:29;2.55;;;1.20;;
74328;SDS011;62745;51.060;13.786;2023-12-28T10:18:55;3.38;;;1.38;;
74328;SDS011;62745;51.060;13.786;2023-12-28T10:21:23;2.90;;;1.13;;
74328;SDS011;62745;51.060;13.786;2023-12-28T10:23:48;4.22;;;1.20;;
74328;SDS011;62745;51.060;13.786;2023-12-28T10:26:13;3.60;;;1.30;;
74328;SDS011;62745;51.060;13.786;2023-12-28T10:28:39;3.08;;;1.30;;
74328;SDS011;62745;51.060;13.786;2023-12-28T10:31:05;4.15;;;1.40;;
74328;SDS011;62745;51.060;13.786;2023-12-28T10:33:34;2.53;;;1.13;;
74328;SDS011;62745;51.060;13.786;2023-12-28T10:36:00;4.05;;;1.67;;
74328;SDS011;62745;51.060;13.786;2023-12-28T10:38:32;3.40;;;1.40;;
74328;SDS011;62745;51.060;13.786;2023-12-28T10:41:00;3.00;;;1.50;;
74328;SDS011;62745;51.060;13.786;2023-12-28T10:43:25;3.10;;;1.17;;
74328;SDS011;62745;51.060;13.786;2023-12-28T10:45:52;4.15;;;1.05;;
74328;SDS011;62745;51.060;13.786;2023-12-28T10:48:21;2.50;;;1.17;;
74328;SDS011;62745;51.060;13.786;2023-12-28T10:50:55;2.95;;;1.30;;
74328;SDS011;62745;51.060;13.786;2023-12-28T10:58:45;3.15;;;1.42;;
74328;SDS011;62745;51.060;13.786;2023-12-28T11:01:14;4.13;;;1.42;;
74328;SDS011;62745;51.060;13.786;2023-12-28T11:03:47;2.90;;;1.23;;
74328;SDS011;62745;51.060;13.786;2023-12-28T11:06:22;3.28;;;1.42;;
74328;SDS011;62745;51.060;13.786;2023-12-28T11:08:49;2.90;;;1.15;;
74328;SDS011;62745;51.060;13.786;2023-12-28T11:11:18;3.95;;;1.42;;
74328;SDS011;62745;51.060;13.786;2023-12-28T11:13:44;4.53;;;1.58;;
74328;SDS011;62745;51.060;13.786;2023-12-28T11:16:10;5.50;;;1.33;;
74328;SDS011;62745;51.060;13.786;2023-12-28T11:18:36;3.28;;;1.58;;
74328;SDS011;62745;51.060;13.786;2023-12-28T11:21:02;4.30;;;1.60;;
74328;SDS011;62745;51.060;13.786;2023-12-28T11:23:27;3.67;;;1.50;;
74328;SDS011;62745;51.060;13.786;2023-12-28T11:25:53;3.33;;;1.42;;
74328;SDS011;62745;51.060;13.786;2023-12-28T11:28:18;4.50;;;1.60;;
74328;SDS011;62745;51.060;13.786;2023-12-28T11:30:46;4.18;;;1.45;;
74328;SDS011;62745;51.060;13.786;2023-12-28T11:33:12;4.15;;;1.50;;
74328;SDS011;62745;51.060;13.786;2023-12-28T11:35:40;5.73;;;1.77;;
74328;SDS011;62745;51.060;13.786;2023-12-28T11:38:09;3.25;;;1.42;;
74328;SDS011;62745;51.060;13.786;2023-12-28T11:40:45;3.85;;;1.52;;
74328;SDS011;62745;51.060;13.786;2023-12-28T11:43:18;3.30;;;1.92;;
74328;SDS011;62745;51.060;13.786;2023-12-28T11:45:48;3.55;;;1.75;;
74328;SDS011;62745;51.060;13.786;2023-12-28T11:48:25;4.03;;;1.70;;
74328;SDS011;62745;51.060;13.786;2023-12-28T11:50:54;4.40;;;1.70;;
74328;SDS011;62745;51.060;13.786;2023-12-28T11:53:22;5.53;;;1.83;;
74328;SDS011;62745;51.060;13.786;2023-12-28T11:55:48;3.95;;;1.65;;
74328;SDS011;62745;51.060;13.786;2023-12-28T11:58:13;3.60;;;1.30;;
74328;SDS011;62745;51.060;13.786;2023-12-28T12:00:39;3.13;;;1.50;;
74328;SDS011;62745;51.060;13.786;2023-12-28T12:03:05;4.20;;;1.73;;
74328;SDS011;62745;51.060;13.786;2023-12-28T12:05:31;3.80;;;1.55;;
74328;SDS011;62745;51.060;13.786;2023-12-28T12:07:56;3.83;;;1.53;;
74328;SDS011;62745;51.060;13.786;2023-12-28T12:10:22;3.65;;;1.77;;
74328;SDS011;62745;51.060;13.786;2023-12-28T12:12:47;4.40;;;1.70;;
74328;SDS011;62745;51.060;13.786;2023-12-28T12:15:12;5.88;;;1.73;;
74328;SDS011;62745;51.060;13.786;2023-12-28T12:17:38;4.78;;;1.50;;
74328;SDS011;62745;51.060;13.786;2023-12-28T12:20:04;3.58;;;1.60;;
74328;SDS011;62745;51.060;13.786;2023-12-28T12:22:31;8.30;;;2.08;;
74328;SDS011;62745;51.060;13.786;2023-12-28T12:24:57;3.83;;;1.70;;
74328;SDS011;62745;51.060;13.786;2023-12-28T12:27:25;3.47;;;1.60;;
74328;SDS011;62745;51.060;13.786;2023-12-28T12:29:50;4.73;;;1.50;;
74328;SDS011;62745;51.060;13.786;2023-12-28T12:32:15;2.77;;;1.17;;
74328;SDS011;62745;51.060;13.786;2023-12-28T12:34:41;3.25;;;1.35;;
74328;SDS011;62745;51.060;13.786;2023-12-28T12:37:07;4.93;;;1.40;;
74328;SDS011;62745;51.060;13.786;2023-12-28T12:39:32;3.40;;;1.30;;
74328;SDS011;62745;51.060;13.786;2023-12-28T12:41:57;3.45;;;1.45;;
74328;SDS011;62745;51.060;13.786;2023-12-28T12:44:23;4.10;;;1.30;;
74328;SDS011;62745;51.060;13.786;2023-12-28T12:46:48;3.47;;;1.35;;
74328;SDS011;62745;51.060;13.786;2023-12-28T12:49:21;2.92;;;1.00;;
74328;SDS011;62745;51.060;13.786;2023-12-28T12:51:47;2.22;;;0.90;;
74328;SDS011;62745;51.060;13.786;2023-12-28T12:54:13;4.63;;;1.35;;
74328;SDS011;62745;51.060;13.786;2023-12-28T12:56:38;2.43;;;1.00;;
74328;SDS011;62745;51.060;13.786;2023-12-28T12:59:10;3.88;;;1.50;;
74328;SDS011;62745;51.060;13.786;2023-12-28T13:01:40;2.90;;;1.10;;
74328;SDS011;62745;51.060;13.786;2023-12-28T13:04:06;2.23;;;0.93;;
74328;SDS011;62745;51.060;13.786;2023-12-28T13:06:31;3.22;;;1.33;;
74328;SDS011;62745;51.060;13.786;2023-12-28T13:08:57;2.97;;;1.30;;
74328;SDS011;62745;51.060;13.786;2023-12-28T13:11:22;4.27;;;1.13;;
74328;SDS011;62745;51.060;13.786;2023-12-28T13:13:51;2.15;;;0.95;;
74328;SDS011;62745;51.060;13.786;2023-12-28T13:16:16;3.70;;;1.10;;
74328;SDS011;62745;51.060;13.786;2023-12-28T13:18:41;2.67;;;1.00;;
74328;SDS011;62745;51.060;13.786;2023-12-28T13:21:07;3.87;;;1.60;;
74328;SDS011;62745;51.060;13.786;2023-12-28T13:23:32;6.63;;;1.40;;
74328;SDS011;62745;51.060;13.786;2023-12-28T13:25:57;2.53;;;1.27;;
74328;SDS011;62745;51.060;13.786;2023-12-28T13:28:22;3.93;;;1.33;;
74328;SDS011;62745;51.060;13.786;2023-12-28T13:30:48;4.40;;;1.70;;
74328;SDS011;62745;51.060;13.786;2023-12-28T13:33:15;4.45;;;1.60;;
74328;SDS011;62745;51.060;13.786;2023-12-28T13:35:41;3.83;;;1.83;;
74328;SDS011;62745;51.060;13.786;2023-12-28T13:38:06;5.00;;;2.27;;
74328;SDS011;62745;51.060;13.786;2023-12-28T13:40:31;5.77;;;2.00;;
74328;SDS011;62745;51.060;13.786;2023-12-28T13:42:57;3.55;;;1.70;;
74328;SDS011;62745;51.060;13.786;2023-12-28T13:45:22;3.23;;;1.77;;
74328;SDS011;62745;51.060;13.786;2023-12-28T13:47:47;3.73;;;1.23;;
74328;SDS011;62745;51.060;13.786;2023-12-28T13:50:12;2.87;;;1.50;;
74328;SDS011;62745;51.060;13.786;2023-12-28T13:52:38;4.73;;;1.43;;
74328;SDS011;62745;51.060;13.786;2023-12-28T13:55:03;5.13;;;1.95;;
74328;SDS011;62745;51.060;13.786;2023-12-28T13:57:28;3.83;;;1.60;;
74328;SDS011;62745;51.060;13.786;2023-12-28T13:59:54;4.20;;;1.77;;
74328;SDS011;62745;51.060;13.786;2023-12-28T14:02:21;5.07;;;2.00;;
74328;SDS011;62745;51.060;13.786;2023-12-28T14:04:46;6.93;;;2.10;;
74328;SDS011;62745;51.060;13.786;2023-12-28T14:07:12;4.30;;;1.70;;
74328;SDS011;62745;51.060;13.786;2023-12-28T14:09:37;4.90;;;1.90;;
74328;SDS011;62745;51.060;13.786;2023-12-28T14:12:02;3.38;;;1.40;;
74328;SDS011;62745;51.060;13.786;2023-12-28T14:14:28;7.15;;;2.67;;
74328;SDS011;62745;51.060;13.786;2023-12-28T14:16:53;8.40;;;5.10;;
74328;SDS011;62745;51.060;13.786;2023-12-28T14:19:18;4.07;;;1.80;;
74328;SDS011;62745;51.060;13.786;2023-12-28T14:21:43;4.75;;;2.58;;
74328;SDS011;62745;51.060;13.786;2023-12-28T14:24:09;4.45;;;2.47;;
74328;SDS011;62745;51.060;13.786;2023-12-28T14:26:35;5.70;;;3.55;;
74328;SDS011;62745;51.060;13.786;2023-12-28T14:29:09;7.55;;;3.75;;
74328;SDS011;62745;51.060;13.786;2023-12-28T14:31:35;4.43;;;1.88;;
74328;SDS011;62745;51.060;13.786;2023-12-28T14:34:01;7.78;;;4.00;;
74328;SDS011;62745;51.060;13.786;2023-12-28T14:36:27;6.40;;;2.75;;